sensor_id;sensor_type;location;lat;lon;timestamp;P1;durP1;ratioP1;P2;durP2;ratioP2
13311;SDS011;34033;48.672;9.376;2023-07-30T00:01:51;2.13;;;1.90;;
13311;SDS011;34033;48.672;9.376;2023-07-30T00:04:17;2.30;;;2.20;;
13311;SDS011;34033;48.672;9.376;2023-07-30T00:06:42;2.37;;;2.17;;
13311;SDS011;34033;48.672;9.376;2023-07-30T00:09:07;2.10;;;1.90;;
13311;SDS011;34033;48.672;9.376;2023-07-30T00:11:32;2.80;;;2.10;;
13311;SDS011;34033;48.672;9.376;2023-07-30T00:13:58;2.00;;;1.87;;
13311;SDS011;34033;48.672;9.376;2023-07-30T00:16:27;2.20;;;2.10;;
13311;SDS011;34033;48.672;9.376;2023-07-30T00:18:52;2.00;;;1.80;;
13311;SDS011;34033;48.672;9.376;2023-07-30T00:21:18;2.47;;;2.03;;
13311;SDS011;34033;48.672;9.376;2023-07-30T00:23:43;2.50;;;2.17;;
13311;SDS011;34033;48.672;9.376;2023-07-30T00:26:08;2.00;;;1.83;;
13311;SDS011;34033;48.672;9.376;2023-07-30T00:28:34;1.80;;;1.70;;
13311;SDS011;34033;48.672;9.376;2023-07-30T00:30:59;2.13;;;1.77;;
13311;SDS011;34033;48.672;9.376;2023-07-30T00:33:24;2.10;;;1.90;;
13311;SDS011;34033;48.672;9.376;2023-07-30T00:35:52;2.10;;;1.87;;
13311;SDS011;34033;48.672;9.376;2023-07-30T00:38:18;2.00;;;1.90;;
13311;SDS011;34033;48.672;9.376;2023-07-30T00:40:44;1.93;;;1.77;;
13311;SDS011;34033;48.672;9.376;2023-07-30T00:43:10;1.90;;;1.80;;
13311;SDS011;34033;48.672;9.376;2023-07-30T00:45:35;1.83;;;1.70;;
13311;SDS011;34033;48.672;9.376;2023-07-30T00:48:03;3.03;;;2.03;;
13311;SDS011;34033;48.672;9.376;2023-07-30T00:50:29;1.70;;;1.60;;
13311;SDS011;34033;48.672;9.376;2023-07-30T00:52:55;4.67;;;1.67;;
13311;SDS011;34033;48.672;9.376;2023-07-30T00:55:21;2.33;;;1.80;;
13311;SDS011;34033;48.672;9.376;2023-07-30T00:57:46;1.73;;;1.63;;
13311;SDS011;34033;48.672;9.376;2023-07-30T01:00:13;1.70;;;1.60;;
13311;SDS011;34033;48.672;9.376;2023-07-30T01:02:38;3.50;;;1.87;;
13311;SDS011;34033;48.672;9.376;2023-07-30T01:05:03;2.50;;;1.83;;
13311;SDS011;34033;48.672;9.376;2023-07-30T01:07:32;1.77;;;1.67;;
13311;SDS011;34033;48.672;9.376;2023-07-30T01:09:58;2.10;;;2.00;;
13311;SDS011;34033;48.672;9.376;2023-07-30T01:12:25;2.10;;;2.00;;
13311;SDS011;34033;48.672;9.376;2023-07-30T01:14:51;3.13;;;2.03;;
13311;SDS011;34033;48.672;9.376;2023-07-30T01:17:19;2.00;;;1.90;;
13311;SDS011;34033;48.672;9.376;2023-07-30T01:19:46;6.17;;;2.57;;
13311;SDS011;34033;48.672;9.376;2023-07-30T01:22:11;3.17;;;2.00;;
13311;SDS011;34033;48.672;9.376;2023-07-30T01:24:36;2.30;;;2.10;;
13311;SDS011;34033;48.672;9.376;2023-07-30T01:27:02;2.03;;;1.93;;
13311;SDS011;34033;48.672;9.376;2023-07-30T01:32:15;2.33;;;2.13;;
13311;SDS011;34033;48.672;9.376;2023-07-30T01:34:44;3.33;;;2.47;;
13311;SDS011;34033;48.672;9.376;2023-07-30T01:37:12;2.60;;;2.40;;
13311;SDS011;34033;48.672;9.376;2023-07-30T01:39:39;2.97;;;2.77;;
13311;SDS011;34033;48.672;9.376;2023-07-30T01:42:05;2.63;;;2.40;;
13311;SDS011;34033;48.672;9.376;2023-07-30T01:44:31;2.67;;;2.47;;
13311;SDS011;34033;48.672;9.376;2023-07-30T01:46:56;3.20;;;2.43;;
13311;SDS011;34033;48.672;9.376;2023-07-30T01:49:21;3.27;;;2.60;;
13311;SDS011;34033;48.672;9.376;2023-07-30T01:51:47;2.50;;;2.30;;
13311;SDS011;34033;48.672;9.376;2023-07-30T01:54:12;2.80;;;2.53;;
13311;SDS011;34033;48.672;9.376;2023-07-30T01:56:38;2.40;;;2.20;;
13311;SDS011;34033;48.672;9.376;2023-07-30T01:59:04;2.30;;;2.10;;
13311;SDS011;34033;48.672;9.376;2023-07-30T02:01:29;2.53;;;2.10;;
13311;SDS011;34033;48.672;9.376;2023-07-30T02:03:55;2.27;;;2.07;;
13311;SDS011;34033;48.672;9.376;2023-07-30T02:06:20;3.20;;;1.83;;
13311;SDS011;34033;48.672;9.376;2023-07-30T02:08:45;3.17;;;2.30;;
13311;SDS011;34033;48.672;9.376;2023-07-30T02:11:11;2.10;;;2.00;;
13311;SDS011;34033;48.672;9.376;2023-07-30T02:13:36;3.07;;;2.30;;
13311;SDS011;34033;48.672;9.376;2023-07-30T02:16:01;2.00;;;1.90;;
13311;SDS011;34033;48.672;9.376;2023-07-30T02:18:27;2.10;;;1.90;;
13311;SDS011;34033;48.672;9.376;2023-07-30T02:20:52;2.10;;;2.00;;
13311;SDS011;34033;48.672;9.376;2023-07-30T02:23:17;2.73;;;1.77;;
13311;SDS011;34033;48.672;9.376;2023-07-30T02:25:43;1.87;;;1.77;;
13311;SDS011;34033;48.672;9.376;2023-07-30T02:28:08;2.00;;;1.90;;
13311;SDS011;34033;48.672;9.376;2023-07-30T02:30:34;2.10;;;1.90;;
13311;SDS011;34033;48.672;9.376;2023-07-30T02:32:59;1.53;;;1.40;;
13311;SDS011;34033;48.672;9.376;2023-07-30T02:35:25;1.93;;;1.77;;
13311;SDS011;34033;48.672;9.376;2023-07-30T02:37:50;1.90;;;1.80;;
13311;SDS011;34033;48.672;9.376;2023-07-30T02:40:15;1.70;;;1.60;;
13311;SDS011;34033;48.672;9.376;2023-07-30T02:42:41;3.77;;;2.07;;
13311;SDS011;34033;48.672;9.376;2023-07-30T02:45:06;1.80;;;1.70;;
13311;SDS011;34033;48.672;9.376;2023-07-30T02:47:31;1.90;;;1.80;;
13311;SDS011;34033;48.672;9.376;2023-07-30T02:49:57;2.27;;;2.00;;
13311;SDS011;34033;48.672;9.376;2023-07-30T02:52:22;2.10;;;2.00;;
13311;SDS011;34033;48.672;9.376;2023-07-30T02:54:47;2.57;;;1.90;;
13311;SDS011;34033;48.672;9.376;2023-07-30T02:57:13;1.80;;;1.70;;
13311;SDS011;34033;48.672;9.376;2023-07-30T02:59:38;2.23;;;2.10;;
13311;SDS011;34033;48.672;9.376;2023-07-30T03:02:05;2.70;;;1.77;;
13311;SDS011;34033;48.672;9.376;2023-07-30T03:04:31;2.17;;;1.97;;
13311;SDS011;34033;48.672;9.376;2023-07-30T03:06:56;2.03;;;1.93;;
13311;SDS011;34033;48.672;9.376;2023-07-30T03:09:22;1.80;;;1.70;;
13311;SDS011;34033;48.672;9.376;2023-07-30T03:11:49;1.70;;;1.60;;
13311;SDS011;34033;48.672;9.376;2023-07-30T03:14:14;2.00;;;1.90;;
13311;SDS011;34033;48.672;9.376;2023-07-30T03:16:40;2.30;;;2.10;;
13311;SDS011;34033;48.672;9.376;2023-07-30T03:19:05;1.90;;;1.80;;
13311;SDS011;34033;48.672;9.376;2023-07-30T03:21:31;2.10;;;2.00;;
13311;SDS011;34033;48.672;9.376;2023-07-30T03:23:56;1.87;;;1.77;;
13311;SDS011;34033;48.672;9.376;2023-07-30T03:26:21;2.00;;;1.90;;
13311;SDS011;34033;48.672;9.376;2023-07-30T03:28:46;1.87;;;1.77;;
13311;SDS011;34033;48.672;9.376;2023-07-30T03:31:12;2.50;;;2.30;;
13311;SDS011;34033;48.672;9.376;2023-07-30T03:33:37;2.27;;;2.07;;
13311;SDS011;34033;48.672;9.376;2023-07-30T03:36:04;6.77;;;2.13;;
13311;SDS011;34033;48.672;9.376;2023-07-30T03:38:29;4.13;;;1.90;;
13311;SDS011;34033;48.672;9.376;2023-07-30T03:40:55;2.23;;;2.03;;
13311;SDS011;34033;48.672;9.376;2023-07-30T03:43:20;2.20;;;2.00;;
13311;SDS011;34033;48.672;9.376;2023-07-30T03:45:45;1.93;;;1.83;;
13311;SDS011;34033;48.672;9.376;2023-07-30T03:48:11;4.23;;;2.27;;
13311;SDS011;34033;48.672;9.376;2023-07-30T03:50:36;2.27;;;2.07;;
13311;SDS011;34033;48.672;9.376;2023-07-30T03:53:01;2.70;;;1.97;;
13311;SDS011;34033;48.672;9.376;2023-07-30T03:55:27;2.20;;;2.00;;
13311;SDS011;34033;48.672;9.376;2023-07-30T03:57:53;2.07;;;1.97;;
13311;SDS011;34033;48.672;9.376;2023-07-30T04:00:18;3.80;;;2.37;;
13311;SDS011;34033;48.672;9.376;2023-07-30T04:02:44;2.67;;;2.07;;
13311;SDS011;34033;48.672;9.376;2023-07-30T04:05:09;2.93;;;2.10;;
13311;SDS011;34033;48.672;9.376;2023-07-30T04:07:34;4.90;;;2.00;;
13311;SDS011;34033;48.672;9.376;2023-07-30T04:10:00;2.23;;;2.07;;
13311;SDS011;34033;48.672;9.376;2023-07-30T04:12:25;2.50;;;2.13;;
13311;SDS011;34033;48.672;9.376;2023-07-30T04:14:50;1.90;;;1.80;;
13311;SDS011;34033;48.672;9.376;2023-07-30T04:17:16;1.73;;;1.63;;
13311;SDS011;34033;48.672;9.376;2023-07-30T04:19:41;2.03;;;1.83;;
13311;SDS011;34033;48.672;9.376;2023-07-30T04:22:06;2.20;;;1.80;;
13311;SDS011;34033;48.672;9.376;2023-07-30T04:24:32;1.80;;;1.70;;
13311;SDS011;34033;48.672;9.376;2023-07-30T04:26:57;2.07;;;1.90;;
13311;SDS011;34033;48.672;9.376;2023-07-30T04:29:22;1.90;;;1.80;;
13311;SDS011;34033;48.672;9.376;2023-07-30T04:31:47;2.00;;;1.90;;
13311;SDS011;34033;48.672;9.376;2023-07-30T04:34:13;2.10;;;1.90;;
13311;SDS011;34033;48.672;9.376;2023-07-30T04:36:38;2.03;;;1.93;;
13311;SDS011;34033;48.672;9.376;2023-07-30T04:39:04;2.70;;;1.80;;
13311;SDS011;34033;48.672;9.376;2023-07-30T04:41:29;1.70;;;1.60;;
13311;SDS011;34033;48.672;9.376;2023-07-30T04:43:55;2.00;;;1.70;;
13311;SDS011;34033;48.672;9.376;2023-07-30T04:46:20;2.17;;;2.00;;
13311;SDS011;34033;48.672;9.376;2023-07-30T04:48:46;2.00;;;1.90;;
13311;SDS011;34033;48.672;9.376;2023-07-30T04:51:11;1.70;;;1.60;;
13311;SDS011;34033;48.672;9.376;2023-07-30T04:53:36;2.00;;;1.90;;
13311;SDS011;34033;48.672;9.376;2023-07-30T04:56:02;1.87;;;1.77;;
13311;SDS011;34033;48.672;9.376;2023-07-30T04:58:27;2.00;;;1.90;;
13311;SDS011;34033;48.672;9.376;2023-07-30T05:00:53;3.60;;;2.00;;
13311;SDS011;34033;48.672;9.376;2023-07-30T05:03:18;2.40;;;1.90;;
13311;SDS011;34033;48.672;9.376;2023-07-30T05:05:43;3.20;;;1.90;;
13311;SDS011;34033;48.672;9.376;2023-07-30T05:08:08;2.03;;;1.83;;
13311;SDS011;34033;48.672;9.376;2023-07-30T05:10:34;2.67;;;2.00;;
13311;SDS011;34033;48.672;9.376;2023-07-30T05:12:59;1.70;;;1.60;;
13311;SDS011;34033;48.672;9.376;2023-07-30T05:15:25;2.17;;;1.97;;
13311;SDS011;34033;48.672;9.376;2023-07-30T05:17:51;1.83;;;1.73;;
13311;SDS011;34033;48.672;9.376;2023-07-30T05:20:16;1.90;;;1.80;;
13311;SDS011;34033;48.672;9.376;2023-07-30T05:22:41;1.77;;;1.67;;
13311;SDS011;34033;48.672;9.376;2023-07-30T05:25:07;2.30;;;1.60;;
13311;SDS011;34033;48.672;9.376;2023-07-30T05:27:33;2.03;;;1.63;;
13311;SDS011;34033;48.672;9.376;2023-07-30T05:29:58;1.80;;;1.70;;
13311;SDS011;34033;48.672;9.376;2023-07-30T05:32:23;1.30;;;1.30;;
13311;SDS011;34033;48.672;9.376;2023-07-30T05:34:50;2.10;;;1.80;;
13311;SDS011;34033;48.672;9.376;2023-07-30T05:37:15;1.93;;;1.63;;
13311;SDS011;34033;48.672;9.376;2023-07-30T05:39:41;1.67;;;1.57;;
13311;SDS011;34033;48.672;9.376;2023-07-30T05:42:06;1.70;;;1.60;;
13311;SDS011;34033;48.672;9.376;2023-07-30T05:44:32;1.53;;;1.43;;
13311;SDS011;34033;48.672;9.376;2023-07-30T05:46:57;1.57;;;1.47;;
13311;SDS011;34033;48.672;9.376;2023-07-30T05:49:22;1.83;;;1.73;;
13311;SDS011;34033;48.672;9.376;2023-07-30T05:51:48;1.30;;;1.30;;
13311;SDS011;34033;48.672;9.376;2023-07-30T05:54:13;1.50;;;1.40;;
13311;SDS011;34033;48.672;9.376;2023-07-30T05:56:38;2.10;;;1.70;;
13311;SDS011;34033;48.672;9.376;2023-07-30T05:59:03;1.97;;;1.80;;
13311;SDS011;34033;48.672;9.376;2023-07-30T06:01:29;1.60;;;1.50;;
13311;SDS011;34033;48.672;9.376;2023-07-30T06:03:54;1.80;;;1.70;;
13311;SDS011;34033;48.672;9.376;2023-07-30T06:06:19;2.07;;;1.87;;
13311;SDS011;34033;48.672;9.376;2023-07-30T06:08:51;1.93;;;1.40;;
13311;SDS011;34033;48.672;9.376;2023-07-30T06:11:17;1.70;;;1.60;;
13311;SDS011;34033;48.672;9.376;2023-07-30T06:13:43;2.77;;;1.57;;
13311;SDS011;34033;48.672;9.376;2023-07-30T06:16:08;1.30;;;1.30;;
13311;SDS011;34033;48.672;9.376;2023-07-30T06:18:34;1.60;;;1.50;;
13311;SDS011;34033;48.672;9.376;2023-07-30T06:21:00;1.57;;;1.57;;
13311;SDS011;34033;48.672;9.376;2023-07-30T06:23:25;1.50;;;1.40;;
13311;SDS011;34033;48.672;9.376;2023-07-30T06:25:50;1.30;;;1.30;;
13311;SDS011;34033;48.672;9.376;2023-07-30T06:28:16;1.60;;;1.50;;
13311;SDS011;34033;48.672;9.376;2023-07-30T06:30:41;2.23;;;1.90;;
13311;SDS011;34033;48.672;9.376;2023-07-30T06:33:06;7.90;;;2.30;;
13311;SDS011;34033;48.672;9.376;2023-07-30T06:35:32;2.63;;;2.43;;
13311;SDS011;34033;48.672;9.376;2023-07-30T06:37:57;3.13;;;2.00;;
13311;SDS011;34033;48.672;9.376;2023-07-30T06:40:22;2.40;;;2.20;;
13311;SDS011;34033;48.672;9.376;2023-07-30T06:42:48;4.90;;;2.30;;
13311;SDS011;34033;48.672;9.376;2023-07-30T06:45:13;7.13;;;3.60;;
13311;SDS011;34033;48.672;9.376;2023-07-30T06:47:39;1.80;;;1.70;;
13311;SDS011;34033;48.672;9.376;2023-07-30T06:50:04;3.90;;;2.57;;
13311;SDS011;34033;48.672;9.376;2023-07-30T06:52:33;4.47;;;3.07;;
13311;SDS011;34033;48.672;9.376;2023-07-30T06:54:58;1.97;;;1.77;;
13311;SDS011;34033;48.672;9.376;2023-07-30T06:57:24;6.17;;;2.43;;
13311;SDS011;34033;48.672;9.376;2023-07-30T06:59:49;2.63;;;2.10;;
13311;SDS011;34033;48.672;9.376;2023-07-30T07:02:14;1.87;;;1.70;;
13311;SDS011;34033;48.672;9.376;2023-07-30T07:04:40;1.97;;;1.87;;
13311;SDS011;34033;48.672;9.376;2023-07-30T07:07:05;1.50;;;1.40;;
13311;SDS011;34033;48.672;9.376;2023-07-30T07:09:30;1.40;;;1.40;;
13311;SDS011;34033;48.672;9.376;2023-07-30T07:11:56;3.40;;;1.60;;
13311;SDS011;34033;48.672;9.376;2023-07-30T07:14:21;1.70;;;1.60;;
13311;SDS011;34033;48.672;9.376;2023-07-30T07:16:47;4.63;;;1.60;;
13311;SDS011;34033;48.672;9.376;2023-07-30T07:19:13;3.20;;;2.20;;
13311;SDS011;34033;48.672;9.376;2023-07-30T07:21:39;1.90;;;1.57;;
13311;SDS011;34033;48.672;9.376;2023-07-30T07:24:04;2.40;;;1.50;;
13311;SDS011;34033;48.672;9.376;2023-07-30T07:26:29;2.10;;;1.47;;
13311;SDS011;34033;48.672;9.376;2023-07-30T07:28:55;1.10;;;1.10;;
13311;SDS011;34033;48.672;9.376;2023-07-30T07:31:21;4.00;;;1.50;;
13311;SDS011;34033;48.672;9.376;2023-07-30T07:33:46;1.43;;;1.43;;
13311;SDS011;34033;48.672;9.376;2023-07-30T07:36:11;1.27;;;1.27;;
13311;SDS011;34033;48.672;9.376;2023-07-30T07:38:39;1.50;;;1.40;;
13311;SDS011;34033;48.672;9.376;2023-07-30T07:41:04;3.43;;;1.43;;
13311;SDS011;34033;48.672;9.376;2023-07-30T07:43:29;1.20;;;1.20;;
13311;SDS011;34033;48.672;9.376;2023-07-30T07:45:55;1.60;;;1.50;;
13311;SDS011;34033;48.672;9.376;2023-07-30T07:48:20;1.33;;;1.33;;
13311;SDS011;34033;48.672;9.376;2023-07-30T07:50:46;2.83;;;1.40;;
13311;SDS011;34033;48.672;9.376;2023-07-30T07:53:11;1.17;;;1.17;;
13311;SDS011;34033;48.672;9.376;2023-07-30T07:55:36;1.00;;;1.00;;
13311;SDS011;34033;48.672;9.376;2023-07-30T07:58:02;1.73;;;1.03;;
13311;SDS011;34033;48.672;9.376;2023-07-30T08:00:27;0.90;;;0.90;;
13311;SDS011;34033;48.672;9.376;2023-07-30T08:02:52;1.00;;;1.00;;
13311;SDS011;34033;48.672;9.376;2023-07-30T08:05:18;1.90;;;1.20;;
13311;SDS011;34033;48.672;9.376;2023-07-30T08:07:45;1.10;;;1.10;;
13311;SDS011;34033;48.672;9.376;2023-07-30T08:10:11;1.03;;;1.03;;
13311;SDS011;34033;48.672;9.376;2023-07-30T08:12:36;0.90;;;0.90;;
13311;SDS011;34033;48.672;9.376;2023-07-30T08:15:02;0.83;;;0.83;;
13311;SDS011;34033;48.672;9.376;2023-07-30T08:17:27;1.07;;;1.07;;
13311;SDS011;34033;48.672;9.376;2023-07-30T08:19:53;1.50;;;1.10;;
13311;SDS011;34033;48.672;9.376;2023-07-30T08:22:18;0.93;;;0.93;;
13311;SDS011;34033;48.672;9.376;2023-07-30T08:24:43;1.20;;;1.10;;
13311;SDS011;34033;48.672;9.376;2023-07-30T08:27:09;1.30;;;1.00;;
13311;SDS011;34033;48.672;9.376;2023-07-30T08:29:34;1.73;;;1.40;;
13311;SDS011;34033;48.672;9.376;2023-07-30T08:31:59;2.20;;;1.40;;
13311;SDS011;34033;48.672;9.376;2023-07-30T08:34:25;1.40;;;1.30;;
13311;SDS011;34033;48.672;9.376;2023-07-30T08:36:50;1.80;;;1.30;;
13311;SDS011;34033;48.672;9.376;2023-07-30T08:39:15;1.07;;;1.07;;
13311;SDS011;34033;48.672;9.376;2023-07-30T08:41:41;1.10;;;1.10;;
13311;SDS011;34033;48.672;9.376;2023-07-30T08:44:06;1.40;;;1.30;;
13311;SDS011;34033;48.672;9.376;2023-07-30T08:46:32;1.13;;;1.10;;
13311;SDS011;34033;48.672;9.376;2023-07-30T08:48:57;1.27;;;1.10;;
13311;SDS011;34033;48.672;9.376;2023-07-30T08:51:23;2.83;;;2.63;;
13311;SDS011;34033;48.672;9.376;2023-07-30T08:53:51;2.10;;;1.93;;
13311;SDS011;34033;48.672;9.376;2023-07-30T08:56:16;1.43;;;1.40;;
13311;SDS011;34033;48.672;9.376;2023-07-30T08:58:42;3.03;;;1.93;;
13311;SDS011;34033;48.672;9.376;2023-07-30T09:01:09;1.70;;;1.60;;
13311;SDS011;34033;48.672;9.376;2023-07-30T09:03:37;2.17;;;2.00;;
13311;SDS011;34033;48.672;9.376;2023-07-30T09:06:04;2.37;;;1.50;;
13311;SDS011;34033;48.672;9.376;2023-07-30T09:08:30;1.67;;;1.40;;
13311;SDS011;34033;48.672;9.376;2023-07-30T09:10:57;1.57;;;1.47;;
13311;SDS011;34033;48.672;9.376;2023-07-30T09:13:22;1.77;;;1.53;;
13311;SDS011;34033;48.672;9.376;2023-07-30T09:15:48;1.50;;;1.40;;
13311;SDS011;34033;48.672;9.376;2023-07-30T09:18:16;1.10;;;1.10;;
13311;SDS011;34033;48.672;9.376;2023-07-30T09:20:43;1.00;;;1.00;;
13311;SDS011;34033;48.672;9.376;2023-07-30T09:23:09;3.90;;;1.10;;
13311;SDS011;34033;48.672;9.376;2023-07-30T09:25:35;1.00;;;1.00;;
13311;SDS011;34033;48.672;9.376;2023-07-30T09:28:01;1.63;;;1.47;;
13311;SDS011;34033;48.672;9.376;2023-07-30T09:30:27;1.00;;;1.00;;
13311;SDS011;34033;48.672;9.376;2023-07-30T09:32:54;0.77;;;0.77;;
13311;SDS011;34033;48.672;9.376;2023-07-30T09:35:20;1.30;;;1.20;;
13311;SDS011;34033;48.672;9.376;2023-07-30T09:37:47;0.93;;;0.93;;
13311;SDS011;34033;48.672;9.376;2023-07-30T09:40:14;1.33;;;1.03;;
13311;SDS011;34033;48.672;9.376;2023-07-30T09:42:44;1.10;;;1.10;;
13311;SDS011;34033;48.672;9.376;2023-07-30T09:45:24;2.73;;;1.10;;
13311;SDS011;34033;48.672;9.376;2023-07-30T09:47:51;0.90;;;0.90;;
13311;SDS011;34033;48.672;9.376;2023-07-30T09:50:17;1.00;;;1.00;;
13311;SDS011;34033;48.672;9.376;2023-07-30T09:52:43;1.10;;;1.10;;
13311;SDS011;34033;48.672;9.376;2023-07-30T09:55:09;1.30;;;1.20;;
13311;SDS011;34033;48.672;9.376;2023-07-30T09:57:36;1.47;;;1.30;;
13311;SDS011;34033;48.672;9.376;2023-07-30T10:00:05;3.10;;;1.10;;
13311;SDS011;34033;48.672;9.376;2023-07-30T10:02:36;1.07;;;1.07;;
13311;SDS011;34033;48.672;9.376;2023-07-30T10:05:03;1.10;;;1.10;;
13311;SDS011;34033;48.672;9.376;2023-07-30T10:07:36;1.53;;;1.30;;
13311;SDS011;34033;48.672;9.376;2023-07-30T10:10:07;1.13;;;1.00;;
13311;SDS011;34033;48.672;9.376;2023-07-30T10:12:34;1.17;;;1.17;;
13311;SDS011;34033;48.672;9.376;2023-07-30T10:15:01;1.43;;;1.30;;
13311;SDS011;34033;48.672;9.376;2023-07-30T10:17:27;2.80;;;1.20;;
13311;SDS011;34033;48.672;9.376;2023-07-30T10:19:55;2.37;;;1.27;;
13311;SDS011;34033;48.672;9.376;2023-07-30T10:22:24;2.00;;;1.10;;
13311;SDS011;34033;48.672;9.376;2023-07-30T10:25:02;1.10;;;1.10;;
13311;SDS011;34033;48.672;9.376;2023-07-30T10:27:36;1.20;;;1.10;;
13311;SDS011;34033;48.672;9.376;2023-07-30T10:32:41;1.47;;;1.23;;
13311;SDS011;34033;48.672;9.376;2023-07-30T10:35:43;1.30;;;1.20;;
13311;SDS011;34033;48.672;9.376;2023-07-30T10:38:18;1.00;;;1.00;;
13311;SDS011;34033;48.672;9.376;2023-07-30T10:40:59;1.50;;;1.10;;
13311;SDS011;34033;48.672;9.376;2023-07-30T10:43:31;0.90;;;0.90;;
13311;SDS011;34033;48.672;9.376;2023-07-30T10:45:59;1.10;;;1.10;;
13311;SDS011;34033;48.672;9.376;2023-07-30T10:51:02;1.20;;;1.10;;
13311;SDS011;34033;48.672;9.376;2023-07-30T10:53:29;1.30;;;1.20;;
13311;SDS011;34033;48.672;9.376;2023-07-30T10:55:57;1.37;;;1.30;;
13311;SDS011;34033;48.672;9.376;2023-07-30T10:58:27;1.33;;;1.27;;
13311;SDS011;34033;48.672;9.376;2023-07-30T11:00:53;1.27;;;1.20;;
13311;SDS011;34033;48.672;9.376;2023-07-30T11:03:19;1.20;;;1.20;;
13311;SDS011;34033;48.672;9.376;2023-07-30T11:05:48;1.27;;;1.27;;
13311;SDS011;34033;48.672;9.376;2023-07-30T11:08:13;1.40;;;1.30;;
13311;SDS011;34033;48.672;9.376;2023-07-30T11:10:43;1.40;;;1.30;;
13311;SDS011;34033;48.672;9.376;2023-07-30T11:13:10;1.17;;;1.17;;
13311;SDS011;34033;48.672;9.376;2023-07-30T11:15:41;1.30;;;1.30;;
13311;SDS011;34033;48.672;9.376;2023-07-30T11:18:07;1.10;;;1.10;;
13311;SDS011;34033;48.672;9.376;2023-07-30T11:20:33;1.33;;;1.23;;
13311;SDS011;34033;48.672;9.376;2023-07-30T11:22:59;1.10;;;1.10;;
13311;SDS011;34033;48.672;9.376;2023-07-30T11:25:24;1.27;;;1.17;;
13311;SDS011;34033;48.672;9.376;2023-07-30T11:27:49;1.80;;;1.70;;
13311;SDS011;34033;48.672;9.376;2023-07-30T11:30:16;1.43;;;1.20;;
13311;SDS011;34033;48.672;9.376;2023-07-30T11:32:42;1.90;;;1.43;;
13311;SDS011;34033;48.672;9.376;2023-07-30T11:35:09;1.60;;;1.07;;
13311;SDS011;34033;48.672;9.376;2023-07-30T11:37:36;1.40;;;1.30;;
13311;SDS011;34033;48.672;9.376;2023-07-30T11:40:05;0.90;;;0.90;;
13311;SDS011;34033;48.672;9.376;2023-07-30T11:42:33;1.30;;;1.20;;
13311;SDS011;34033;48.672;9.376;2023-07-30T11:45:01;1.10;;;1.10;;
13311;SDS011;34033;48.672;9.376;2023-07-30T11:47:42;1.90;;;1.30;;
13311;SDS011;34033;48.672;9.376;2023-07-30T11:50:07;1.20;;;1.10;;
13311;SDS011;34033;48.672;9.376;2023-07-30T11:52:33;1.40;;;1.30;;
13311;SDS011;34033;48.672;9.376;2023-07-30T11:55:04;1.50;;;1.40;;
13311;SDS011;34033;48.672;9.376;2023-07-30T11:57:33;1.30;;;1.20;;
13311;SDS011;34033;48.672;9.376;2023-07-30T11:59:59;1.40;;;1.30;;
13311;SDS011;34033;48.672;9.376;2023-07-30T12:02:25;1.20;;;1.20;;
13311;SDS011;34033;48.672;9.376;2023-07-30T12:04:50;1.17;;;1.17;;
13311;SDS011;34033;48.672;9.376;2023-07-30T12:07:22;3.17;;;1.30;;
13311;SDS011;34033;48.672;9.376;2023-07-30T12:09:49;1.40;;;1.30;;
13311;SDS011;34033;48.672;9.376;2023-07-30T12:12:14;1.40;;;1.30;;
13311;SDS011;34033;48.672;9.376;2023-07-30T12:17:09;1.40;;;1.30;;
13311;SDS011;34033;48.672;9.376;2023-07-30T12:19:34;1.43;;;1.37;;
13311;SDS011;34033;48.672;9.376;2023-07-30T12:22:02;1.40;;;1.30;;
13311;SDS011;34033;48.672;9.376;2023-07-30T12:24:28;1.30;;;1.30;;
13311;SDS011;34033;48.672;9.376;2023-07-30T12:26:53;1.30;;;1.30;;
13311;SDS011;34033;48.672;9.376;2023-07-30T12:29:18;1.70;;;1.60;;
13311;SDS011;34033;48.672;9.376;2023-07-30T12:31:44;1.20;;;1.20;;
13311;SDS011;34033;48.672;9.376;2023-07-30T12:34:10;1.37;;;1.33;;
13311;SDS011;34033;48.672;9.376;2023-07-30T12:36:36;2.73;;;1.20;;
13311;SDS011;34033;48.672;9.376;2023-07-30T12:39:01;1.40;;;1.40;;
13311;SDS011;34033;48.672;9.376;2023-07-30T12:41:27;2.53;;;1.73;;
13311;SDS011;34033;48.672;9.376;2023-07-30T12:43:53;2.60;;;1.40;;
13311;SDS011;34033;48.672;9.376;2023-07-30T12:46:21;2.17;;;1.30;;
13311;SDS011;34033;48.672;9.376;2023-07-30T12:48:46;1.40;;;1.30;;
13311;SDS011;34033;48.672;9.376;2023-07-30T12:51:12;2.70;;;1.23;;
13311;SDS011;34033;48.672;9.376;2023-07-30T12:53:37;1.63;;;1.30;;
13311;SDS011;34033;48.672;9.376;2023-07-30T12:56:02;1.20;;;1.20;;
13311;SDS011;34033;48.672;9.376;2023-07-30T12:58:28;1.93;;;1.17;;
13311;SDS011;34033;48.672;9.376;2023-07-30T13:00:53;1.63;;;1.50;;
13311;SDS011;34033;48.672;9.376;2023-07-30T13:03:18;1.60;;;1.30;;
13311;SDS011;34033;48.672;9.376;2023-07-30T13:05:44;1.60;;;1.50;;
13311;SDS011;34033;48.672;9.376;2023-07-30T13:08:09;2.60;;;1.30;;
13311;SDS011;34033;48.672;9.376;2023-07-30T13:10:34;1.37;;;1.27;;
13311;SDS011;34033;48.672;9.376;2023-07-30T13:13:00;1.20;;;1.20;;
13311;SDS011;34033;48.672;9.376;2023-07-30T13:15:26;3.43;;;1.70;;
13311;SDS011;34033;48.672;9.376;2023-07-30T13:17:52;1.53;;;1.20;;
13311;SDS011;34033;48.672;9.376;2023-07-30T13:20:18;1.20;;;1.20;;
13311;SDS011;34033;48.672;9.376;2023-07-30T13:22:43;1.40;;;1.30;;
13311;SDS011;34033;48.672;9.376;2023-07-30T13:25:08;1.37;;;1.30;;
13311;SDS011;34033;48.672;9.376;2023-07-30T13:27:34;1.50;;;1.40;;
13311;SDS011;34033;48.672;9.376;2023-07-30T13:29:59;5.97;;;1.40;;
13311;SDS011;34033;48.672;9.376;2023-07-30T13:32:25;1.33;;;1.20;;
13311;SDS011;34033;48.672;9.376;2023-07-30T13:34:50;1.43;;;1.30;;
13311;SDS011;34033;48.672;9.376;2023-07-30T13:37:15;1.40;;;1.30;;
13311;SDS011;34033;48.672;9.376;2023-07-30T13:39:41;1.30;;;1.20;;
13311;SDS011;34033;48.672;9.376;2023-07-30T13:42:06;1.20;;;1.10;;
13311;SDS011;34033;48.672;9.376;2023-07-30T13:44:31;1.77;;;0.97;;
13311;SDS011;34033;48.672;9.376;2023-07-30T13:46:57;1.13;;;1.10;;
13311;SDS011;34033;48.672;9.376;2023-07-30T13:49:22;2.20;;;1.40;;
13311;SDS011;34033;48.672;9.376;2023-07-30T13:51:48;1.27;;;1.17;;
13311;SDS011;34033;48.672;9.376;2023-07-30T13:54:13;1.47;;;1.37;;
13311;SDS011;34033;48.672;9.376;2023-07-30T13:56:38;1.50;;;1.40;;
13311;SDS011;34033;48.672;9.376;2023-07-30T13:59:04;1.37;;;1.27;;
13311;SDS011;34033;48.672;9.376;2023-07-30T14:01:30;3.23;;;1.57;;
13311;SDS011;34033;48.672;9.376;2023-07-30T14:03:55;1.80;;;1.40;;
13311;SDS011;34033;48.672;9.376;2023-07-30T14:06:20;1.20;;;1.20;;
13311;SDS011;34033;48.672;9.376;2023-07-30T14:08:46;1.30;;;1.30;;
13311;SDS011;34033;48.672;9.376;2023-07-30T14:11:11;1.40;;;1.30;;
13311;SDS011;34033;48.672;9.376;2023-07-30T14:13:36;1.30;;;1.20;;
13311;SDS011;34033;48.672;9.376;2023-07-30T14:16:02;1.17;;;1.17;;
13311;SDS011;34033;48.672;9.376;2023-07-30T14:18:27;1.43;;;1.33;;
13311;SDS011;34033;48.672;9.376;2023-07-30T14:20:52;1.20;;;1.10;;
13311;SDS011;34033;48.672;9.376;2023-07-30T14:23:18;1.40;;;1.30;;
13311;SDS011;34033;48.672;9.376;2023-07-30T14:25:44;1.40;;;1.13;;
13311;SDS011;34033;48.672;9.376;2023-07-30T14:28:09;1.50;;;1.40;;
13311;SDS011;34033;48.672;9.376;2023-07-30T14:30:34;1.53;;;1.43;;
13311;SDS011;34033;48.672;9.376;2023-07-30T14:33:01;1.30;;;1.20;;
13311;SDS011;34033;48.672;9.376;2023-07-30T14:35:27;1.20;;;1.10;;
13311;SDS011;34033;48.672;9.376;2023-07-30T14:37:52;1.20;;;1.20;;
13311;SDS011;34033;48.672;9.376;2023-07-30T14:40:18;1.70;;;1.30;;
13311;SDS011;34033;48.672;9.376;2023-07-30T14:42:43;1.20;;;1.20;;
13311;SDS011;34033;48.672;9.376;2023-07-30T14:45:09;1.40;;;1.30;;
13311;SDS011;34033;48.672;9.376;2023-07-30T14:47:34;1.30;;;1.20;;
13311;SDS011;34033;48.672;9.376;2023-07-30T14:50:00;2.83;;;1.30;;
13311;SDS011;34033;48.672;9.376;2023-07-30T14:52:26;1.33;;;1.13;;